Time;durP1;ratioP1;P1;durP2;ratioP2;P2;SDS_P1;SDS_P2;PMS_P1;PMS_P2;Temp;Humidity;BMP_temperature;BMP_pressure;BME280_temperature;BME280_humidity;BME280_pressure;Samples;Min_cycle;Max_cycle;Signal;HPM_P1;HPM_P2
2022/09/12 00:00:33;;;;;;;;;;;;;;;19.00;100.00;98085.31;5080577;28;19979;-73
2022/09/12 00:03:00;;;;;;;;;;;;;;;19.03;100.00;98092.03;5080729;28;19925;-73
2022/09/12 00:05:26;;;;;;;;;;;;;;;19.02;100.00;98085.81;5076937;28;20497;-73
2022/09/12 00:07:53;;;;;;;;;;;;;;;19.00;100.00;98077.19;5077041;28;19933;-73
2022/09/12 00:10:19;;;;;;;;;;;;;;;19.04;100.00;98072.75;5081403;28;19928;-72
2022/09/12 00:12:47;;;;;;;;;;;;;;;19.06;100.00;98067.06;5085360;28;19995;-73
2022/09/12 00:15:13;;;;;;;;;;;;;;;18.99;100.00;98078.34;5077960;28;19930;-73
2022/09/12 00:17:40;;;;;;;;;;;;;;;18.99;100.00;98070.22;5077071;28;19992;-73
2022/09/12 00:20:07;;;;;;;;;;;;;;;18.96;100.00;98073.53;5077837;28;19929;-72
2022/09/12 00:22:34;;;;;;;;;;;;;;;18.97;100.00;98067.00;5080098;28;19943;-72
2022/09/12 00:25:01;;;;;;;;;;;;;;;18.98;100.00;98073.22;5080000;28;19920;-73
2022/09/12 00:27:27;;;;;;;;;;;;;;;18.96;100.00;98068.13;5076472;28;19920;-73
2022/09/12 00:29:55;;;;;;;;;;;;;;;18.95;100.00;98071.13;5076769;28;19975;-73
2022/09/12 00:32:21;;;;;;;;;;;;;;;18.91;100.00;98065.53;5079480;28;19994;-72
2022/09/12 00:34:47;;;;;;;;;;;;;;;18.88;100.00;98065.41;5061976;28;19987;-72
2022/09/12 00:37:14;;;;;;;;;;;;;;;18.81;100.00;98063.94;5078477;28;19991;-72
2022/09/12 00:39:40;;;;;;;;;;;;;;;18.88;100.00;98060.75;5076985;28;19989;-73
2022/09/12 00:42:06;;;;;;;;;;;;;;;18.84;100.00;98065.22;5077775;28;20420;-72
2022/09/12 00:44:44;;;;;;;;;;;;;;;18.83;100.00;98058.22;5080148;28;19988;-73
2022/09/12 00:47:14;;;;;;;;;;;;;;;18.85;100.00;98064.09;5078223;28;20142;-73
2022/09/12 00:49:43;;;;;;;;;;;;;;;18.81;100.00;98055.81;5076188;28;19925;-73
2022/09/12 00:52:11;;;;;;;;;;;;;;;18.79;100.00;98057.22;5078087;28;19925;-74
2022/09/12 00:54:39;;;;;;;;;;;;;;;18.77;100.00;98054.84;5079500;28;19990;-73
2022/09/12 00:57:06;;;;;;;;;;;;;;;18.80;100.00;98062.34;5079147;28;19921;-73
2022/09/12 00:59:35;;;;;;;;;;;;;;;18.81;100.00;98050.41;5082124;28;19924;-72
2022/09/12 01:02:02;;;;;;;;;;;;;;;18.70;100.00;98048.28;5076881;28;19931;-72
2022/09/12 01:04:30;;;;;;;;;;;;;;;18.63;100.00;98051.44;5079411;28;19938;-73
2022/09/12 01:06:58;;;;;;;;;;;;;;;18.56;100.00;98050.28;5079097;28;20023;-73
2022/09/12 01:09:25;;;;;;;;;;;;;;;18.61;100.00;98050.16;5075834;28;19952;-73
2022/09/12 01:11:52;;;;;;;;;;;;;;;18.67;100.00;98041.59;5075919;28;19935;-72
2022/09/12 01:14:19;;;;;;;;;;;;;;;18.64;100.00;98041.41;5078678;28;19964;-73
2022/09/12 01:16:47;;;;;;;;;;;;;;;18.67;100.00;98040.78;5079023;28;19948;-73
2022/09/12 01:19:25;;;;;;;;;;;;;;;18.67;100.00;98041.59;5077889;28;19931;-72
2022/09/12 01:22:03;;;;;;;;;;;;;;;18.63;100.00;98050.66;5075296;28;19925;-72
2022/09/12 01:24:37;;;;;;;;;;;;;;;18.65;100.00;98040.31;5058718;28;20326;-72
2022/09/12 01:27:25;;;;;;;;;;;;;;;18.66;100.00;98044.63;5078802;28;19931;-72
2022/09/12 01:30:25;;;;;;;;;;;;;;;18.66;100.00;98039.22;5075650;28;19927;-73
2022/09/12 01:33:00;;;;;;;;;;;;;;;18.65;100.00;98033.00;5075538;28;19925;-73
2022/09/12 01:35:31;;;;;;;;;;;;;;;18.60;100.00;98032.34;5075303;28;19979;-72
2022/09/12 01:38:03;;;;;;;;;;;;;;;18.58;100.00;98039.94;5075367;28;19943;-72
2022/09/12 01:40:32;;;;;;;;;;;;;;;18.60;100.00;98040.47;5075322;28;19924;-73
2022/09/12 01:43:03;;;;;;;;;;;;;;;18.57;100.00;98043.78;5076409;28;19927;-72
2022/09/12 01:45:33;;;;;;;;;;;;;;;18.58;100.00;98039.94;5051089;28;20009;-73
2022/09/12 01:48:05;;;;;;;;;;;;;;;18.62;100.00;98036.31;5072757;28;19935;-73
2022/09/12 01:50:32;;;;;;;;;;;;;;;18.59;100.00;98030.75;5072327;28;20011;-73
2022/09/12 01:53:01;;;;;;;;;;;;;;;18.57;100.00;98032.97;5079156;28;19951;-73
2022/09/12 01:55:30;;;;;;;;;;;;;;;18.57;100.00;98027.56;5075223;28;19988;-73
2022/09/12 01:57:59;;;;;;;;;;;;;;;18.58;100.00;98034.53;5074979;28;19925;-73
2022/09/12 02:00:25;;;;;;;;;;;;;;;18.54;100.00;98028.16;5066904;28;19996;-73
2022/09/12 02:02:55;;;;;;;;;;;;;;;18.52;100.00;98033.09;5066663;28;19988;-73
2022/09/12 02:05:25;;;;;;;;;;;;;;;18.48;100.00;98029.38;5066789;28;19925;-72
2022/09/12 02:07:53;;;;;;;;;;;;;;;18.43;100.00;98027.59;5066052;28;19984;-73
2022/09/12 02:10:22;;;;;;;;;;;;;;;18.48;100.00;98023.97;5065479;28;19956;-73
2022/09/12 02:12:51;;;;;;;;;;;;;;;18.44;100.00;98017.59;5066472;28;19925;-73
2022/09/12 02:15:19;;;;;;;;;;;;;;;18.44;100.00;98013.00;5066305;28;19928;-72
2022/09/12 02:17:49;;;;;;;;;;;;;;;18.42;100.00;98012.47;5066232;28;19984;-74
2022/09/12 02:20:18;;;;;;;;;;;;;;;18.38;100.00;98013.44;5066123;28;19933;-72
2022/09/12 02:22:48;;;;;;;;;;;;;;;18.34;100.00;98018.66;5066175;28;19956;-72
2022/09/12 02:25:17;;;;;;;;;;;;;;;18.32;100.00;98016.25;5074457;28;19970;-73
2022/09/12 02:27:45;;;;;;;;;;;;;;;18.31;100.00;98008.47;5074213;28;19924;-73
2022/09/12 02:30:15;;;;;;;;;;;;;;;18.32;100.00;98010.84;5058769;28;19974;-74
2022/09/12 02:32:44;;;;;;;;;;;;;;;18.28;100.00;98011.78;5078021;28;19925;-74
2022/09/12 02:35:13;;;;;;;;;;;;;;;18.27;100.00;98005.56;5082554;28;19920;-73
2022/09/12 02:37:51;;;;;;;;;;;;;;;18.27;100.00;98002.88;5075628;28;19924;-72
2022/09/12 02:40:18;;;;;;;;;;;;;;;18.26;100.00;98001.28;5077030;28;19924;-74
2022/09/12 02:42:44;;;;;;;;;;;;;;;18.26;100.00;98009.38;5077448;28;19951;-74
2022/09/12 02:45:11;;;;;;;;;;;;;;;18.27;100.00;98005.56;5076084;28;19979;-74
2022/09/12 02:47:39;;;;;;;;;;;;;;;18.29;100.00;98010.66;5074224;28;19969;-73
2022/09/12 02:50:06;;;;;;;;;;;;;;;18.25;100.00;98009.69;5074856;28;19921;-73
2022/09/12 02:52:33;;;;;;;;;;;;;;;18.23;100.00;98001.09;5077646;28;19959;-74
2022/09/12 02:55:01;;;;;;;;;;;;;;;18.23;100.00;98007.28;5077365;28;19997;-73
2022/09/12 02:57:28;;;;;;;;;;;;;;;18.20;100.00;98002.50;5073828;28;19991;-73
2022/09/12 02:59:55;;;;;;;;;;;;;;;18.25;100.00;98004.28;5074038;28;19996;-73
2022/09/12 03:02:27;;;;;;;;;;;;;;;18.24;100.00;98003.50;5077103;28;19991;-73
2022/09/12 03:04:59;;;;;;;;;;;;;;;18.25;100.00;98007.00;5077216;28;19928;-74
2022/09/12 03:07:34;;;;;;;;;;;;;;;18.04;100.00;97998.59;5065501;28;19921;-73
2022/09/12 03:10:07;;;;;;;;;;;;;;;18.06;100.00;97999.09;5065393;28;19956;-74
2022/09/12 03:12:42;;;;;;;;;;;;;;;18.14;100.00;97998.34;5065297;28;19925;-73
2022/09/12 03:15:22;;;;;;;;;;;;;;;18.15;100.00;97999.94;5065602;28;19989;-73
2022/09/12 03:17:56;;;;;;;;;;;;;;;18.16;100.00;97998.03;5065048;28;19925;-74
2022/09/12 03:20:29;;;;;;;;;;;;;;;18.14;100.00;98000.25;5058321;28;19924;-73
2022/09/12 03:22:57;;;;;;;;;;;;;;;18.15;100.00;97997.25;5081471;28;20004;-73
2022/09/12 03:25:28;;;;;;;;;;;;;;;18.06;100.00;97996.41;5074905;28;20031;-73
2022/09/12 03:27:57;;;;;;;;;;;;;;;18.14;100.00;97995.63;5073673;28;19992;-75
2022/09/12 03:30:24;;;;;;;;;;;;;;;18.18;100.00;97999.34;5077025;28;19980;-73
2022/09/12 03:32:52;;;;;;;;;;;;;;;18.11;100.00;98004.38;5077528;28;19993;-74
2022/09/12 03:35:19;;;;;;;;;;;;;;;18.07;100.00;97992.56;5074941;28;19929;-73
2022/09/12 03:37:46;;;;;;;;;;;;;;;18.06;100.00;97996.41;5073818;28;19951;-73
2022/09/12 03:40:12;;;;;;;;;;;;;;;18.12;100.00;98005.16;5075122;28;19920;-73
2022/09/12 03:42:40;;;;;;;;;;;;;;;18.05;100.00;97996.69;5076809;28;19991;-73
2022/09/12 03:45:07;;;;;;;;;;;;;;;17.87;100.00;98008.50;5074935;28;19968;-74
2022/09/12 03:47:34;;;;;;;;;;;;;;;17.60;100.00;98004.81;5073683;28;19980;-73
2022/09/12 03:50:00;;;;;;;;;;;;;;;17.56;100.00;98003.81;5073428;28;19995;-73
2022/09/12 03:52:26;;;;;;;;;;;;;;;17.63;100.00;98003.41;5076768;28;19983;-73
2022/09/12 03:54:52;;;;;;;;;;;;;;;17.69;100.00;97996.78;5076831;28;19963;-73
2022/09/12 03:57:19;;;;;;;;;;;;;;;17.74;100.00;98002.06;5074057;28;19989;-74
2022/09/12 03:59:48;;;;;;;;;;;;;;;17.71;100.00;97999.97;5073387;28;19980;-74
2022/09/12 04:02:14;;;;;;;;;;;;;;;17.79;100.00;98004.66;5075120;28;19924;-73
2022/09/12 04:04:41;;;;;;;;;;;;;;;17.82;100.00;98003.22;5058748;28;20032;-73
2022/09/12 04:07:07;;;;;;;;;;;;;;;17.89;100.00;98007.09;5075407;28;19920;-73
2022/09/12 04:09:34;;;;;;;;;;;;;;;17.95;100.00;98010.47;5073436;28;19974;-73
2022/09/12 04:12:01;;;;;;;;;;;;;;;17.78;100.00;98011.94;5073330;28;20003;-73
2022/09/12 04:14:27;;;;;;;;;;;;;;;17.62;100.00;98001.81;5076578;28;19920;-73
2022/09/12 04:16:55;;;;;;;;;;;;;;;17.55;100.00;98002.22;5076777;28;19929;-72
2022/09/12 04:19:22;;;;;;;;;;;;;;;17.69;100.00;98000.28;5073739;28;19967;-73
2022/09/12 04:21:48;;;;;;;;;;;;;;;17.67;100.00;97993.59;5073387;28;20654;-73
2022/09/12 04:24:15;;;;;;;;;;;;;;;17.68;100.00;98000.56;5075459;28;19928;-73
2022/09/12 04:26:41;;;;;;;;;;;;;;;17.66;100.00;98010.91;5076589;28;19992;-74
2022/09/12 04:29:07;;;;;;;;;;;;;;;17.70;100.00;98003.78;5075296;28;19929;-73
2022/09/12 04:31:33;;;;;;;;;;;;;;;17.72;100.00;97999.66;5075320;28;19992;-73
2022/09/12 04:34:01;;;;;;;;;;;;;;;17.74;100.00;97996.66;5076767;28;19952;-73
2022/09/12 04:36:28;;;;;;;;;;;;;;;17.72;100.00;98001.56;5079873;28;20103;-73
2022/09/12 04:38:55;;;;;;;;;;;;;;;17.76;100.00;97999.88;5079746;28;19940;-74
2022/09/12 04:41:22;;;;;;;;;;;;;;;17.80;100.00;97998.13;5076832;28;20026;-74
2022/09/12 04:43:51;;;;;;;;;;;;;;;17.83;100.00;97994.81;5076249;28;20615;-73
2022/09/12 04:46:19;;;;;;;;;;;;;;;17.93;100.00;97993.75;5078459;28;19929;-73
2022/09/12 04:48:46;;;;;;;;;;;;;;;17.89;100.00;97995.50;5079554;28;19951;-73
2022/09/12 04:51:14;;;;;;;;;;;;;;;17.89;100.00;97995.50;5078398;28;19931;-72
2022/09/12 04:53:41;;;;;;;;;;;;;;;17.87;100.00;97998.50;5076008;28;19964;-74
2022/09/12 04:56:09;;;;;;;;;;;;;;;17.83;100.00;98002.91;5076900;28;19924;-73
2022/09/12 04:58:36;;;;;;;;;;;;;;;17.91;100.00;98002.19;5079957;28;19948;-73
2022/09/12 05:01:06;;;;;;;;;;;;;;;17.96;100.00;98012.06;5079083;28;19925;-74
2022/09/12 05:03:32;;;;;;;;;;;;;;;17.89;100.00;98004.38;5075792;28;19931;-73
2022/09/12 05:05:59;;;;;;;;;;;;;;;17.63;100.00;98008.81;5057991;28;19988;-72
2022/09/12 05:08:26;;;;;;;;;;;;;;;17.46;100.00;98003.22;5066529;28;19924;-73
2022/09/12 05:10:53;;;;;;;;;;;;;;;17.56;100.00;98017.34;5068329;28;19987;-73
2022/09/12 05:13:20;;;;;;;;;;;;;;;17.69;100.00;98015.69;5058050;28;19984;-72
2022/09/12 05:15:54;;;;;;;;;;;;;;;17.75;100.00;98017.16;5067655;28;19929;-74
2022/09/12 05:18:20;;;;;;;;;;;;;;;17.39;100.00;98019.88;5067373;28;20055;-73
2022/09/12 05:20:46;;;;;;;;;;;;;;;17.39;100.00;98017.16;5055395;28;19930;-73
2022/09/12 05:23:13;;;;;;;;;;;;;;;17.53;100.00;98014.41;5077839;28;20316;-73
2022/09/12 05:25:47;;;;;;;;;;;;;;;17.56;100.00;98013.81;5076053;28;19925;-73
2022/09/12 05:28:13;;;;;;;;;;;;;;;17.50;100.00;98026.63;5077362;28;19975;-73
2022/09/12 05:30:40;;;;;;;;;;;;;;;17.54;100.00;98026.81;5061335;28;19984;-72
2022/09/12 05:33:06;;;;;;;;;;;;;;;17.61;100.00;98033.41;5077948;28;19983;-73
2022/09/12 05:35:32;;;;;;;;;;;;;;;17.69;100.00;98027.28;5075296;28;19988;-72
2022/09/12 05:37:59;;;;;;;;;;;;;;;17.62;100.00;98034.22;5075816;28;19929;-72
2022/09/12 05:40:25;;;;;;;;;;;;;;;17.56;100.00;98033.53;5075444;28;19920;-72
2022/09/12 05:42:53;;;;;;;;;;;;;;;17.30;100.00;98043.25;5074263;28;20001;-73
2022/09/12 05:45:20;;;;;;;;;;;;;;;17.25;100.00;98043.38;5077821;28;19925;-73
2022/09/12 05:47:47;;;;;;;;;;;;;;;17.30;100.00;98037.84;5079138;28;19925;-73
2022/09/12 05:50:13;;;;;;;;;;;;;;;17.44;100.00;98040.53;5077192;28;20019;-73
2022/09/12 05:52:39;;;;;;;;;;;;;;;17.30;100.00;98045.19;5075021;28;19931;-73
2022/09/12 05:55:06;;;;;;;;;;;;;;;17.35;100.00;98048.56;5080096;28;20647;-73
2022/09/12 05:57:33;;;;;;;;;;;;;;;17.28;100.00;98035.47;5074680;28;19921;-73
2022/09/12 06:00:00;;;;;;;;;;;;;;;17.20;100.00;98044.28;5074657;28;19979;-73
2022/09/12 06:02:27;;;;;;;;;;;;;;;17.30;100.00;98043.25;5066849;28;19925;-73
2022/09/12 06:04:53;;;;;;;;;;;;;;;17.32;100.00;98053.75;5066842;28;19931;-73
2022/09/12 06:07:20;;;;;;;;;;;;;;;17.41;100.00;98041.16;5066947;28;19929;-72
2022/09/12 06:09:46;;;;;;;;;;;;;;;17.48;100.00;98044.22;5066500;28;20346;-73
2022/09/12 06:12:12;;;;;;;;;;;;;;;17.45;100.00;98040.25;5066595;28;20034;-73
2022/09/12 06:14:39;;;;;;;;;;;;;;;17.24;100.00;98041.75;5066883;28;19928;-73
2022/09/12 06:17:06;;;;;;;;;;;;;;;17.04;100.00;98044.91;5066476;28;19931;-73
2022/09/12 06:19:33;;;;;;;;;;;;;;;17.24;100.00;98039.88;5066512;28;19952;-73
2022/09/12 06:22:00;;;;;;;;;;;;;;;17.40;100.00;98047.63;5065956;28;19924;-73
2022/09/12 06:24:26;;;;;;;;;;;;;;;17.41;100.00;98044.66;5071919;28;19992;-72
2022/09/12 06:26:53;;;;;;;;;;;;;;;17.26;100.00;98048.47;5078504;28;19931;-73
2022/09/12 06:29:19;;;;;;;;;;;;;;;17.13;100.00;98052.00;5075631;28;19966;-73
2022/09/12 06:31:46;;;;;;;;;;;;;;;17.28;100.00;98043.56;5074477;28;19931;-72
2022/09/12 06:34:15;;;;;;;;;;;;;;;17.39;100.00;98046.06;5075739;28;19925;-73
2022/09/12 06:36:43;;;;;;;;;;;;;;;17.55;100.00;98055.44;5078114;28;19952;-73
2022/09/12 06:39:10;;;;;;;;;;;;;;;17.56;100.00;98048.94;5076324;28;19963;-73
2022/09/12 06:41:37;;;;;;;;;;;;;;;17.57;100.00;98054.03;5073993;28;19993;-73
2022/09/12 06:44:03;;;;;;;;;;;;;;;17.72;100.00;98055.59;5074428;28;20015;-73
2022/09/12 06:46:30;;;;;;;;;;;;;;;17.77;100.00;98044.66;5077635;28;19924;-74
2022/09/12 06:48:58;;;;;;;;;;;;;;;17.91;100.00;98058.94;5077802;28;19966;-74
2022/09/12 06:51:26;;;;;;;;;;;;;;;17.94;100.00;98052.09;5074527;28;19924;-73
2022/09/12 06:53:54;;;;;;;;;;;;;;;17.94;100.00;98058.31;5073784;28;19990;-73
2022/09/12 06:56:22;;;;;;;;;;;;;;;17.61;100.00;98054.22;5076790;28;19936;-73
2022/09/12 06:58:49;;;;;;;;;;;;;;;17.49;100.00;98052.00;5077690;28;19939;-73
2022/09/12 07:01:16;;;;;;;;;;;;;;;17.24;100.00;98060.66;5075423;28;19935;-73
2022/09/12 07:03:43;;;;;;;;;;;;;;;17.45;100.00;98056.44;5073942;28;19988;-73
2022/09/12 07:06:10;;;;;;;;;;;;;;;17.62;100.00;98051.22;5075529;28;19931;-73
2022/09/12 07:08:39;;;;;;;;;;;;;;;17.83;100.00;98050.72;5077824;28;19963;-73
2022/09/12 07:11:11;;;;;;;;;;;;;;;17.58;100.00;98061.03;5076371;28;19927;-72
2022/09/12 07:13:37;;;;;;;;;;;;;;;17.09;100.00;98060.97;5073486;28;19920;-73
2022/09/12 07:16:04;;;;;;;;;;;;;;;17.00;100.00;98052.78;5074355;28;19972;-73
2022/09/12 07:18:31;;;;;;;;;;;;;;;16.90;100.00;98046.78;5077385;28;19960;-73
2022/09/12 07:20:59;;;;;;;;;;;;;;;16.64;100.00;98051.91;5077034;28;19936;-73
2022/09/12 07:23:26;;;;;;;;;;;;;;;17.09;100.00;98053.69;5065307;28;19959;-73
2022/09/12 07:25:55;;;;;;;;;;;;;;;17.31;100.00;98061.06;5073912;28;19992;-73
2022/09/12 07:28:22;;;;;;;;;;;;;;;17.56;100.00;98055.13;5076492;28;19920;-72
2022/09/12 07:30:48;;;;;;;;;;;;;;;17.74;100.00;98059.56;5077102;28;20552;-73
2022/09/12 07:33:14;;;;;;;;;;;;;;;17.83;100.00;98056.94;5075212;28;19967;-73
2022/09/12 07:35:41;;;;;;;;;;;;;;;17.89;100.00;98055.72;5073461;28;19980;-73
2022/09/12 07:38:08;;;;;;;;;;;;;;;17.96;100.00;98056.09;5074662;28;19931;-73
2022/09/12 07:40:34;;;;;;;;;;;;;;;17.98;100.00;98056.56;5076781;28;19924;-74
2022/09/12 07:43:02;;;;;;;;;;;;;;;17.76;100.00;98062.75;5077011;28;19948;-74
2022/09/12 07:45:28;;;;;;;;;;;;;;;17.27;100.00;98055.47;5073669;28;20362;-74
2022/09/12 07:47:54;;;;;;;;;;;;;;;17.06;100.00;98054.28;5073524;28;19925;-73
2022/09/12 07:50:21;;;;;;;;;;;;;;;16.98;100.00;98057.69;5076467;28;19983;-73
2022/09/12 07:52:49;;;;;;;;;;;;;;;17.05;100.00;98065.41;5076896;28;19987;-73
2022/09/12 07:55:15;;;;;;;;;;;;;;;17.34;100.00;98070.44;5074979;28;19935;-73
2022/09/12 07:57:41;;;;;;;;;;;;;;;17.55;100.00;98068.94;5073310;28;20002;-73
2022/09/12 08:00:10;;;;;;;;;;;;;;;17.54;100.00;98073.53;5074411;28;19984;-73
2022/09/12 08:02:36;;;;;;;;;;;;;;;17.69;100.00;98065.09;5076807;28;19952;-73
2022/09/12 08:05:03;;;;;;;;;;;;;;;17.63;100.00;98062.81;5076926;28;19920;-73
2022/09/12 08:07:29;;;;;;;;;;;;;;;17.93;100.00;98070.22;5077232;28;19947;-73
2022/09/12 08:09:56;;;;;;;;;;;;;;;17.95;100.00;98065.28;5077397;28;19935;-72
2022/09/12 08:12:22;;;;;;;;;;;;;;;18.08;100.00;98075.25;5080298;28;19987;-72
2022/09/12 08:14:48;;;;;;;;;;;;;;;17.77;100.00;98074.38;5080942;28;19952;-73
2022/09/12 08:17:16;;;;;;;;;;;;;;;17.89;100.00;98085.44;5078941;28;19928;-73
2022/09/12 08:19:43;;;;;;;;;;;;;;;18.03;100.00;98078.09;5077057;28;19920;-73
2022/09/12 08:22:10;;;;;;;;;;;;;;;18.07;100.00;98089.88;5078391;28;19925;-73
2022/09/12 08:24:38;;;;;;;;;;;;;;;18.18;100.00;98079.63;5080574;28;19984;-72
2022/09/12 08:27:04;;;;;;;;;;;;;;;17.98;100.00;98086.28;5079592;28;19967;-73
2022/09/12 08:29:31;;;;;;;;;;;;;;;17.52;100.00;98088.41;5077207;28;19988;-73
2022/09/12 08:31:57;;;;;;;;;;;;;;;17.64;100.00;98100.31;5076920;28;19948;-73
2022/09/12 08:34:25;;;;;;;;;;;;;;;17.65;100.00;98095.72;5079839;28;19936;-74
2022/09/12 08:36:53;;;;;;;;;;;;;;;17.78;100.00;98092.19;5080598;28;19924;-73
2022/09/12 08:39:20;;;;;;;;;;;;;;;17.57;100.00;98093.75;5076893;28;19928;-73
2022/09/12 08:41:47;;;;;;;;;;;;;;;17.59;100.00;98083.44;5076687;28;19921;-73
2022/09/12 08:44:28;;;;;;;;;;;;;;;17.68;100.00;98076.19;5078770;28;20342;-73
2022/09/12 08:47:06;;;;;;;;;;;;;;;17.60;100.00;98082.34;5080218;28;20022;-73
2022/09/12 08:49:35;;;;;;;;;;;;;;;17.96;100.00;98083.13;5068205;28;20565;-73
2022/09/12 08:52:05;;;;;;;;;;;;;;;17.98;100.00;98080.91;5050520;28;19952;-73
2022/09/12 08:54:32;;;;;;;;;;;;;;;17.57;100.00;98085.66;5072328;28;19975;-73
2022/09/12 08:57:02;;;;;;;;;;;;;;;17.56;100.00;98086.75;5079856;28;19967;-73
2022/09/12 08:59:33;;;;;;;;;;;;;;;17.67;100.00;98070.00;5076925;28;19931;-73
2022/09/12 09:02:01;;;;;;;;;;;;;;;17.11;100.00;98075.00;5076469;28;19991;-73
2022/09/12 09:04:34;;;;;;;;;;;;;;;17.06;100.00;98073.19;5076642;28;19925;-74
2022/09/12 09:07:19;;;;;;;;;;;;;;;17.42;100.00;98077.84;5058484;28;19931;-74
2022/09/12 09:09:55;;;;;;;;;;;;;;;17.58;100.00;98077.22;5075744;28;19925;-72
2022/09/12 09:12:26;;;;;;;;;;;;;;;17.15;100.00;98074.06;5079131;28;19991;-73
2022/09/12 09:15:00;;;;;;;;;;;;;;;16.74;100.00;98086.78;5079577;28;19932;-73
2022/09/12 09:17:30;;;;;;;;;;;;;;;16.41;100.00;98085.16;5067920;28;19954;-73
2022/09/12 09:20:01;;;;;;;;;;;;;;;16.41;100.00;98085.16;5067638;28;19976;-74
2022/09/12 09:22:34;;;;;;;;;;;;;;;16.42;100.00;98087.56;5070111;28;19960;-73
2022/09/12 09:25:06;;;;;;;;;;;;;;;16.48;100.00;98090.97;5079332;28;19997;-74
2022/09/12 09:27:35;;;;;;;;;;;;;;;16.69;100.00;98081.44;5067916;28;19981;-74
2022/09/12 09:30:02;;;;;;;;;;;;;;;17.08;100.00;98078.28;5067470;28;19963;-74
2022/09/12 09:32:32;;;;;;;;;;;;;;;17.35;100.00;98077.44;5067516;28;19947;-74
2022/09/12 09:34:58;;;;;;;;;;;;;;;17.26;100.00;98078.19;5068064;28;19924;-74
2022/09/12 09:37:30;;;;;;;;;;;;;;;16.88;100.00;98076.78;5067994;28;20023;-75
2022/09/12 09:40:01;;;;;;;;;;;;;;;16.73;100.00;98083.28;5067333;28;19931;-74
2022/09/12 09:42:34;;;;;;;;;;;;;;;16.82;100.00;98079.88;5075417;28;19935;-74
2022/09/12 09:45:03;;;;;;;;;;;;;;;16.95;100.00;98079.88;5075286;28;19921;-74
2022/09/12 09:47:30;;;;;;;;;;;;;;;17.23;100.00;98070.69;5075264;28;20113;-73
2022/09/12 09:49:56;;;;;;;;;;;;;;;17.42;100.00;98070.56;5075266;28;19927;-75
2022/09/12 09:52:24;;;;;;;;;;;;;;;17.54;100.00;98065.41;5078512;28;19971;-74
2022/09/12 09:54:53;;;;;;;;;;;;;;;17.84;100.00;98071.25;5079385;28;19927;-75
2022/09/12 09:57:39;;;;;;;;;;;;;;;18.00;100.00;98072.50;5076422;28;19932;-73
2022/09/12 10:00:20;;;;;;;;;;;;;;;18.12;100.00;98064.63;5076314;28;20015;-74
2022/09/12 10:02:58;;;;;;;;;;;;;;;18.10;100.00;98064.97;5061327;28;19946;-73
2022/09/12 10:05:24;;;;;;;;;;;;;;;18.32;100.00;98066.81;5075211;28;20000;-73
2022/09/12 10:07:51;;;;;;;;;;;;;;;18.42;100.00;98063.06;5075265;28;19975;-73
2022/09/12 10:10:21;;;;;;;;;;;;;;;18.22;100.00;98065.19;5077581;28;20740;-74
2022/09/12 10:12:49;;;;;;;;;;;;;;;18.13;100.00;98061.63;5078313;28;20018;-74
2022/09/12 10:15:17;;;;;;;;;;;;;;;17.92;100.00;98065.13;5076301;28;19992;-74
2022/09/12 10:17:45;;;;;;;;;;;;;;;17.85;100.00;98054.75;5074770;28;20307;-74
2022/09/12 10:20:26;;;;;;;;;;;;;;;18.13;100.00;98052.72;5076257;28;19939;-74
2022/09/12 10:22:52;;;;;;;;;;;;;;;18.43;100.00;98054.66;5082293;28;19931;-73
2022/09/12 10:25:20;;;;;;;;;;;;;;;18.05;100.00;98050.75;5077435;28;19984;-74
2022/09/12 10:27:54;;;;;;;;;;;;;;;17.87;100.00;98057.13;5074016;28;19936;-74
2022/09/12 10:30:23;;;;;;;;;;;;;;;18.05;100.00;98048.84;5077591;28;19955;-75
2022/09/12 10:32:50;;;;;;;;;;;;;;;18.00;100.00;98048.97;5077854;28;19924;-74
2022/09/12 10:35:18;;;;;;;;;;;;;;;18.06;100.00;98050.44;5075777;28;20506;-74
2022/09/12 10:37:51;;;;;;;;;;;;;;;18.05;100.00;98048.84;5074950;28;19925;-74
2022/09/12 10:40:22;;;;;;;;;;;;;;;18.02;100.00;98046.75;5077102;28;20730;-76
2022/09/12 10:42:49;;;;;;;;;;;;;;;18.54;100.00;98055.19;5077904;28;19924;-73
2022/09/12 10:45:25;;;;;;;;;;;;;;;18.42;100.00;98046.84;5075885;28;19932;-74
2022/09/12 10:47:52;;;;;;;;;;;;;;;18.24;100.00;98048.66;5074287;28;20389;-74
2022/09/12 10:50:24;;;;;;;;;;;;;;;18.23;100.00;98049.75;5058825;28;19924;-74
2022/09/12 10:52:51;;;;;;;;;;;;;;;18.14;100.00;98052.41;5077426;28;19931;-74
2022/09/12 10:55:17;;;;;;;;;;;;;;;18.21;100.00;98041.16;5075292;28;19934;-74
2022/09/12 10:57:53;;;;;;;;;;;;;;;18.00;100.00;98040.88;5074592;28;19929;-75
2022/09/12 11:00:26;;;;;;;;;;;;;;;17.97;100.00;98037.97;5077435;28;19992;-74
2022/09/12 11:02:58;;;;;;;;;;;;;;;21.29;100.00;98029.59;5076253;28;19927;-74
2022/09/12 11:05:35;;;;;;;;;;;;;;;21.37;100.00;98028.75;5074125;28;19925;-74
2022/09/12 11:08:07;;;;;;;;;;;;;;;20.33;100.00;98024.13;5074367;28;20003;-73
2022/09/12 11:10:40;;;;;;;;;;;;;;;20.01;100.00;98020.00;5078111;28;19926;-74
2022/09/12 11:13:16;;;;;;;;;;;;;;;20.36;100.00;98013.38;5063642;28;19912;-74
2022/09/12 11:15:59;;;;;;;;;;;;;;;21.93;100.00;97999.38;5057609;28;19924;-74
2022/09/12 11:18:35;;;;;;;;;;;;;;;22.30;100.00;98009.25;5078169;28;19984;-74
2022/09/12 11:21:17;;;;;;;;;;;;;;;20.82;100.00;98004.44;5077888;28;19952;-74
2022/09/12 11:23:50;;;;;;;;;;;;;;;20.30;100.00;98003.84;5071028;28;19925;-74
2022/09/12 11:26:24;;;;;;;;;;;;;;;20.06;100.00;97997.31;5076351;28;19992;-74
2022/09/12 11:28:54;;;;;;;;;;;;;;;19.73;100.00;98002.47;5077579;28;19931;-74
2022/09/12 11:31:38;;;;;;;;;;;;;;;19.71;100.00;97999.31;5074800;28;20019;-74
2022/09/12 11:34:08;;;;;;;;;;;;;;;19.45;100.00;97995.78;5060862;28;19987;-73
2022/09/12 11:36:40;;;;;;;;;;;;;;;20.75;100.00;97987.06;5073905;28;19987;-74
2022/09/12 11:39:12;;;;;;;;;;;;;;;22.13;100.00;97993.09;5074428;28;19921;-74
2022/09/12 11:41:41;;;;;;;;;;;;;;;22.60;100.00;97991.59;5080624;28;19924;-74
2022/09/12 11:44:12;;;;;;;;;;;;;;;22.84;100.00;97993.56;5080977;28;19980;-73
2022/09/12 11:46:40;;;;;;;;;;;;;;;22.62;100.00;97988.56;5078837;28;19924;-74
2022/09/12 11:49:13;;;;;;;;;;;;;;;21.88;100.00;97983.25;5078746;28;19951;-73
2022/09/12 11:51:41;;;;;;;;;;;;;;;21.66;100.00;97978.19;5081631;28;19983;-74
2022/09/12 11:54:12;;;;;;;;;;;;;;;21.00;100.00;97984.22;5078123;28;19928;-74
2022/09/12 11:56:42;;;;;;;;;;;;;;;20.41;100.00;97986.09;5081269;28;19924;-74
2022/09/12 11:59:11;;;;;;;;;;;;;;;20.49;100.00;97980.97;5080363;28;20011;-74
2022/09/12 12:01:38;;;;;;;;;;;;;;;20.57;100.00;97977.41;5077830;28;19952;-73
2022/09/12 12:04:10;;;;;;;;;;;;;;;20.51;100.00;97982.25;5078412;28;19925;-74
2022/09/12 12:06:43;;;;;;;;;;;;;;;20.38;100.00;97984.03;5088289;28;19956;-73
2022/09/12 12:09:11;;;;;;;;;;;;;;;20.44;100.00;97980.03;5081630;28;20090;-73
2022/09/12 12:11:39;;;;;;;;;;;;;;;20.58;100.00;97979.03;5077957;28;19948;-75
2022/09/12 12:14:07;;;;;;;;;;;;;;;20.57;100.00;97969.28;5078812;28;19952;-74
2022/09/12 12:16:34;;;;;;;;;;;;;;;20.63;100.00;97970.69;5081365;28;19988;-74
2022/09/12 12:19:02;;;;;;;;;;;;;;;20.47;100.00;97967.72;5081184;28;19984;-75
2022/09/12 12:21:39;;;;;;;;;;;;;;;20.56;100.00;97964.97;5077147;28;19971;-74
2022/09/12 12:24:14;;;;;;;;;;;;;;;20.63;100.00;97966.06;5077884;28;20568;-74
2022/09/12 12:26:42;;;;;;;;;;;;;;;20.68;100.00;97965.06;5080810;28;19940;-74
2022/09/12 12:29:09;;;;;;;;;;;;;;;20.77;100.00;97954.97;5080276;28;19983;-74
2022/09/12 12:31:58;;;;;;;;;;;;;;;20.91;100.00;97947.38;5077490;28;19995;-74
2022/09/12 12:34:29;;;;;;;;;;;;;;;21.04;100.00;97950.97;5080180;28;19947;-74
2022/09/12 12:36:58;;;;;;;;;;;;;;;21.01;100.00;97947.00;5080725;28;20030;-75
2022/09/12 12:39:48;;;;;;;;;;;;;;;20.97;100.00;97935.22;5077785;28;19932;-73
2022/09/12 12:42:33;;;;;;;;;;;;;;;21.02;98.49;97943.16;5078985;28;19925;-74
2022/09/12 12:45:00;;;;;;;;;;;;;;;20.98;95.69;97947.69;5080244;28;19996;-74
2022/09/12 12:47:28;;;;;;;;;;;;;;;21.05;98.20;97952.56;5068530;28;19924;-74